createdAt,value
2023-01-15T00:00:24.931Z,2.00
2023-01-15T00:02:55.833Z,1.80
2023-01-15T00:05:27.146Z,1.02
2023-01-15T00:08:00.685Z,1.60
2023-01-15T00:10:31.463Z,1.45
2023-01-15T00:13:02.128Z,1.20
2023-01-15T00:15:32.776Z,1.50
2023-01-15T00:18:03.485Z,0.90
2023-01-15T00:20:34.362Z,1.13
2023-01-15T00:23:27.718Z,1.98
2023-01-15T00:26:12.267Z,1.60
2023-01-15T00:28:43.607Z,1.00
2023-01-15T00:31:17.719Z,1.35
2023-01-15T00:33:48.448Z,1.33
2023-01-15T00:36:21.259Z,1.55
2023-01-15T00:38:54.614Z,1.00
2023-01-15T00:41:26.012Z,1.55
2023-01-15T00:43:57.372Z,1.08
2023-01-15T00:46:28.427Z,1.50
2023-01-15T00:48:59.227Z,1.60
2023-01-15T00:51:30.103Z,1.20
2023-01-15T00:54:03.564Z,0.95
2023-01-15T00:56:34.438Z,1.13
2023-01-15T00:59:05.915Z,1.70
2023-01-15T01:01:37.198Z,1.05
2023-01-15T01:04:08.096Z,2.28
2023-01-15T01:06:39.186Z,1.33
2023-01-15T01:09:15.521Z,1.30
2023-01-15T01:11:46.781Z,1.83
2023-01-15T01:14:17.686Z,1.67
2023-01-15T01:16:48.514Z,1.20
2023-01-15T01:19:23.046Z,1.00
2023-01-15T01:21:55.244Z,1.00
2023-01-15T01:24:28.630Z,0.85
2023-01-15T01:26:59.425Z,1.05
2023-01-15T01:29:30.171Z,1.02
2023-01-15T01:32:01.257Z,0.88
2023-01-15T01:34:32.018Z,1.05
2023-01-15T01:37:02.774Z,1.55
2023-01-15T01:39:36.167Z,2.28
2023-01-15T01:42:07.249Z,3.40
2023-01-15T01:45:03.966Z,2.42
2023-01-15T01:47:36.194Z,2.92
2023-01-15T01:50:12.565Z,3.15
2023-01-15T01:52:46.579Z,7.20
2023-01-15T01:55:23.032Z,2.70
2023-01-15T01:57:58.865Z,4.78
2023-01-15T02:00:31.533Z,4.35
2023-01-15T02:03:04.048Z,4.40
2023-01-15T02:05:38.684Z,4.45
2023-01-15T02:08:10.490Z,5.82
2023-01-15T02:10:44.494Z,4.82
2023-01-15T02:13:22.413Z,5.97
2023-01-15T02:16:01.192Z,6.50
2023-01-15T02:18:38.027Z,4.50
2023-01-15T02:21:15.936Z,2.13
2023-01-15T02:24:12.724Z,1.20
2023-01-15T02:27:12.815Z,0.77
2023-01-15T02:29:58.035Z,0.85
2023-01-15T02:32:35.084Z,0.70
2023-01-15T02:35:12.107Z,1.30
2023-01-15T02:37:48.523Z,1.20
2023-01-15T02:40:22.968Z,0.90
2023-01-15T02:42:58.330Z,0.70
2023-01-15T02:45:34.185Z,0.85
2023-01-15T02:48:14.017Z,0.98
2023-01-15T02:50:48.938Z,0.30
2023-01-15T02:53:24.563Z,0.68
2023-01-15T02:55:59.167Z,1.45
2023-01-15T02:58:40.641Z,0.80
2023-01-15T03:03:49.816Z,0.50
2023-01-15T03:06:24.875Z,1.58
2023-01-15T03:08:56.454Z,0.80
2023-01-15T03:11:27.671Z,0.70
2023-01-15T03:14:12.277Z,1.00
2023-01-15T03:16:47.889Z,1.10
2023-01-15T03:19:27.108Z,0.95
2023-01-15T03:22:05.002Z,1.08
2023-01-15T03:24:39.675Z,0.60
2023-01-15T03:29:53.487Z,0.57
2023-01-15T03:32:25.645Z,2.10
2023-01-15T03:34:58.763Z,7.85
2023-01-15T03:37:31.693Z,4.20
2023-01-15T03:40:02.972Z,2.05
2023-01-15T03:42:48.497Z,2.55
2023-01-15T03:45:28.018Z,1.10
2023-01-15T03:48:04.773Z,0.85
2023-01-15T03:50:41.957Z,1.40
2023-01-15T03:53:17.232Z,1.50
2023-01-15T03:56:00.619Z,1.27
2023-01-15T03:58:42.542Z,1.00
2023-01-15T04:01:22.172Z,0.95
2023-01-15T04:03:55.656Z,1.00
2023-01-15T04:06:32.052Z,1.55
2023-01-15T04:09:03.398Z,1.10
2023-01-15T04:11:36.213Z,1.80
2023-01-15T04:14:09.954Z,1.33
2023-01-15T04:16:59.662Z,1.17
2023-01-15T04:19:30.488Z,1.58
2023-01-15T04:24:37.916Z,2.22
2023-01-15T04:27:08.715Z,1.52
2023-01-15T04:29:39.499Z,1.67
2023-01-15T04:32:12.858Z,1.23
2023-01-15T04:34:43.671Z,1.00
2023-01-15T04:37:14.541Z,1.25
2023-01-15T04:39:45.285Z,1.92
2023-01-15T04:42:29.855Z,1.92
2023-01-15T04:45:00.609Z,1.75
2023-01-15T04:47:34.609Z,2.65
2023-01-15T04:50:05.409Z,1.60
2023-01-15T04:52:36.168Z,1.10
2023-01-15T04:55:07.346Z,1.38
2023-01-15T04:57:39.620Z,1.08
2023-01-15T05:00:12.285Z,1.20
2023-01-15T05:02:45.814Z,0.85
2023-01-15T05:05:16.619Z,0.82
2023-01-15T05:07:47.421Z,1.02
2023-01-15T05:10:18.722Z,1.52
2023-01-15T05:12:49.580Z,0.60
2023-01-15T05:15:20.498Z,0.80
2023-01-15T05:17:53.757Z,1.25
2023-01-15T05:20:24.544Z,1.17
2023-01-15T05:22:55.294Z,1.17
2023-01-15T05:25:26.094Z,1.13
2023-01-15T05:27:56.853Z,1.02
2023-01-15T05:30:27.616Z,0.85
2023-01-15T05:33:01.019Z,1.05
2023-01-15T05:35:31.837Z,0.85
2023-01-15T05:38:04.136Z,1.70
2023-01-15T05:40:34.833Z,0.50
2023-01-15T05:43:05.680Z,0.68
2023-01-15T05:45:38.961Z,0.73
2023-01-15T05:48:12.342Z,1.27
2023-01-15T05:50:43.085Z,0.70
2023-01-15T05:53:13.869Z,1.10
2023-01-15T05:55:44.596Z,0.70
2023-01-15T05:58:15.288Z,0.80
2023-01-15T06:00:45.544Z,0.90
2023-01-15T06:03:18.444Z,1.38
2023-01-15T06:05:53.446Z,1.77
2023-01-15T06:08:23.897Z,0.90
2023-01-15T06:10:54.391Z,0.77
2023-01-15T06:13:25.141Z,0.88
2023-01-15T06:15:55.725Z,0.70
2023-01-15T06:18:29.087Z,0.73
2023-01-15T06:20:59.370Z,1.10
2023-01-15T06:23:29.606Z,0.80
2023-01-15T06:26:03.213Z,0.80
2023-01-15T06:28:33.439Z,0.75
2023-01-15T06:31:07.451Z,0.98
2023-01-15T06:33:40.617Z,0.80
2023-01-15T06:36:13.856Z,0.90
2023-01-15T06:38:44.627Z,1.20
2023-01-15T06:41:29.684Z,0.90
2023-01-15T06:44:12.403Z,0.70
2023-01-15T06:46:58.063Z,1.00
2023-01-15T06:49:30.964Z,1.13
2023-01-15T06:52:01.228Z,0.88
2023-01-15T06:54:31.563Z,0.73
2023-01-15T06:57:01.781Z,0.93
2023-01-15T06:59:32.144Z,1.00
2023-01-15T07:02:03.277Z,1.10
2023-01-15T07:04:36.205Z,0.65
2023-01-15T07:07:06.605Z,0.85
2023-01-15T07:09:37.003Z,0.70
2023-01-15T07:12:07.615Z,0.70
2023-01-15T07:14:38.114Z,1.30
2023-01-15T07:17:08.442Z,1.23
2023-01-15T07:19:41.841Z,0.77
2023-01-15T07:22:13.590Z,0.95
2023-01-15T07:24:43.969Z,1.10
2023-01-15T07:27:14.226Z,1.38
2023-01-15T07:29:44.550Z,0.90
2023-01-15T07:32:14.997Z,1.27
2023-01-15T07:34:48.413Z,1.23
2023-01-15T07:37:18.610Z,2.20
2023-01-15T07:39:48.818Z,0.90
2023-01-15T07:42:31.402Z,1.10
2023-01-15T07:45:14.017Z,1.27
2023-01-15T07:47:56.686Z,1.08
2023-01-15T07:50:29.712Z,0.98
2023-01-15T07:52:59.962Z,1.48
2023-01-15T07:55:30.420Z,1.42
2023-01-15T07:58:00.705Z,1.48
2023-01-15T08:00:31.181Z,1.40
2023-01-15T08:03:02.707Z,1.10
2023-01-15T08:05:35.882Z,1.40
2023-01-15T08:08:06.288Z,1.10
2023-01-15T08:10:57.421Z,0.88
2023-01-15T08:13:40.071Z,1.58
2023-01-15T08:16:11.465Z,1.55
2023-01-15T08:18:42.021Z,1.08
2023-01-15T08:21:19.735Z,1.08
2023-01-15T08:23:51.199Z,1.73
2023-01-15T08:26:21.489Z,1.73
2023-01-15T08:28:51.795Z,1.30
2023-01-15T08:31:22.250Z,1.65
2023-01-15T08:33:52.572Z,3.10
2023-01-15T08:36:25.473Z,1.33
2023-01-15T08:38:55.770Z,1.75
2023-01-15T08:41:26.040Z,1.17
2023-01-15T08:43:56.334Z,1.75
2023-01-15T08:46:26.634Z,1.42
2023-01-15T08:48:57.232Z,1.08
2023-01-15T08:51:30.137Z,2.20
2023-01-15T08:54:00.438Z,2.13
2023-01-15T08:56:30.749Z,1.23
2023-01-15T08:59:01.116Z,1.38
2023-01-15T09:01:31.528Z,1.50
2023-01-15T09:04:01.825Z,1.40
2023-01-15T09:06:34.804Z,1.30
2023-01-15T09:09:05.459Z,1.15
2023-01-15T09:11:36.328Z,1.50
2023-01-15T09:14:06.677Z,2.50
2023-01-15T09:16:37.137Z,1.52
2023-01-15T09:19:08.479Z,1.50
2023-01-15T09:21:41.342Z,1.30
2023-01-15T09:24:11.880Z,1.45
2023-01-15T09:26:43.058Z,2.17
2023-01-15T09:29:13.856Z,2.17
2023-01-15T09:31:44.098Z,1.30
2023-01-15T09:34:14.563Z,1.50
2023-01-15T09:36:47.613Z,1.88
2023-01-15T09:39:17.933Z,2.08
2023-01-15T09:42:08.618Z,1.20
2023-01-15T09:45:04.272Z,1.77
2023-01-15T09:47:39.524Z,1.10
2023-01-15T09:50:26.495Z,0.95
2023-01-15T09:53:16.658Z,1.20
2023-01-15T09:55:50.581Z,1.08
2023-01-15T09:58:23.509Z,1.95
2023-01-15T10:00:55.209Z,1.63
2023-01-15T10:03:35.048Z,1.20
2023-01-15T10:06:15.147Z,1.45
2023-01-15T10:08:50.588Z,1.88
2023-01-15T10:11:51.220Z,1.30
2023-01-15T10:14:39.659Z,1.13
2023-01-15T10:17:23.644Z,1.55
2023-01-15T10:19:55.538Z,1.42
2023-01-15T10:22:40.326Z,2.88
2023-01-15T10:25:19.473Z,0.98
2023-01-15T10:27:53.799Z,0.95
2023-01-15T10:30:34.413Z,1.30
2023-01-15T10:33:19.457Z,1.00
2023-01-15T10:35:56.752Z,1.67
2023-01-15T10:38:34.518Z,1.30
2023-01-15T10:41:43.485Z,1.73
2023-01-15T10:44:22.347Z,1.10
2023-01-15T10:46:59.096Z,1.52
2023-01-15T10:49:32.072Z,1.02
2023-01-15T10:52:08.856Z,1.77
2023-01-15T10:54:42.164Z,1.42
2023-01-15T10:57:16.664Z,1.52
2023-01-15T10:59:55.424Z,1.75
2023-01-15T11:02:31.408Z,1.27
2023-01-15T11:05:01.993Z,1.00
2023-01-15T11:07:57.879Z,1.60
2023-01-15T11:10:31.080Z,1.42
2023-01-15T11:13:17.243Z,1.15
2023-01-15T11:16:05.062Z,1.67
2023-01-15T11:18:51.527Z,0.80
2023-01-15T11:21:23.991Z,1.08
2023-01-15T11:23:55.747Z,1.35
2023-01-15T11:26:28.537Z,1.73
2023-01-15T11:28:59.759Z,1.13
2023-01-15T11:31:42.646Z,1.20
2023-01-15T11:34:22.694Z,1.05
2023-01-15T11:37:04.930Z,2.65
2023-01-15T11:39:35.941Z,1.10
2023-01-15T11:42:20.446Z,1.15
2023-01-15T11:45:07.645Z,0.90
2023-01-15T11:47:52.949Z,0.90
2023-01-15T11:50:36.106Z,1.17
2023-01-15T11:53:06.550Z,1.40
2023-01-15T11:55:36.865Z,0.80
2023-01-15T11:58:11.450Z,0.90
2023-01-15T12:00:46.568Z,0.80
2023-01-15T12:03:23.133Z,0.77
2023-01-15T12:05:59.405Z,1.20
2023-01-15T12:08:42.573Z,1.40
2023-01-15T12:11:36.568Z,0.88
2023-01-15T12:14:32.074Z,1.33
2023-01-15T12:17:08.747Z,1.15
2023-01-15T12:19:50.719Z,1.25
2023-01-15T12:22:34.210Z,1.95
2023-01-15T12:25:33.190Z,1.35
2023-01-15T12:28:07.956Z,1.15
2023-01-15T12:30:50.317Z,1.05
2023-01-15T12:33:27.550Z,0.95
2023-01-15T12:36:06.341Z,0.90
2023-01-15T12:38:49.079Z,1.05
2023-01-15T12:41:25.063Z,0.45
2023-01-15T12:44:11.839Z,0.80
2023-01-15T12:46:45.889Z,0.50
2023-01-15T12:49:30.207Z,0.70
2023-01-15T12:52:08.001Z,0.55
2023-01-15T12:54:44.605Z,0.68
2023-01-15T12:57:19.574Z,0.80
2023-01-15T12:59:57.195Z,1.13
2023-01-15T13:02:35.123Z,0.40
2023-01-15T13:05:19.076Z,0.50
2023-01-15T13:07:56.260Z,0.77
2023-01-15T13:10:31.749Z,0.80
2023-01-15T13:13:08.148Z,0.70
2023-01-15T13:15:45.285Z,0.40
2023-01-15T13:18:24.567Z,0.80
2023-01-15T13:20:56.009Z,0.77
2023-01-15T13:23:47.541Z,0.60
2023-01-15T13:26:33.417Z,0.50
2023-01-15T13:29:12.334Z,0.40
2023-01-15T13:31:55.829Z,1.60
2023-01-15T13:34:33.920Z,0.88
2023-01-15T13:37:21.648Z,1.08
2023-01-15T13:39:57.038Z,0.88
2023-01-15T13:42:37.930Z,0.80
2023-01-15T13:45:29.481Z,0.52
2023-01-15T13:48:05.023Z,0.85
2023-01-15T13:50:38.144Z,0.82
2023-01-15T13:53:19.372Z,0.77
2023-01-15T13:55:58.995Z,0.75
2023-01-15T13:58:31.033Z,0.70
2023-01-15T14:01:09.946Z,0.90
2023-01-15T14:03:41.196Z,0.85
2023-01-15T14:06:12.576Z,1.00
2023-01-15T14:08:45.058Z,0.68
2023-01-15T14:11:38.427Z,0.60
2023-01-15T14:14:47.683Z,1.02
2023-01-15T14:17:45.227Z,0.90
2023-01-15T14:20:52.434Z,0.80
2023-01-15T14:23:40.188Z,0.93
2023-01-15T14:26:20.185Z,0.80
2023-01-15T14:29:05.117Z,1.30
2023-01-15T14:31:51.130Z,0.95
2023-01-15T14:34:25.663Z,1.05
2023-01-15T14:37:01.932Z,1.20
2023-01-15T14:39:36.728Z,1.10
2023-01-15T14:42:26.911Z,1.42
2023-01-15T14:45:08.161Z,0.93
2023-01-15T14:47:46.230Z,1.10
2023-01-15T14:53:20.106Z,1.75
2023-01-15T14:55:52.636Z,4.47
2023-01-15T14:58:37.472Z,4.72
2023-01-15T15:01:18.454Z,2.55
2023-01-15T15:03:54.555Z,3.20
2023-01-15T15:06:25.320Z,3.00
2023-01-15T15:09:03.371Z,3.50
2023-01-15T15:11:54.129Z,4.18
2023-01-15T15:14:30.027Z,2.92
2023-01-15T15:17:03.646Z,0.75
2023-01-15T15:19:41.421Z,1.95
2023-01-15T15:22:17.817Z,3.30
2023-01-15T15:24:54.589Z,1.40
2023-01-15T15:27:26.764Z,1.38
2023-01-15T15:30:08.074Z,1.13
2023-01-15T15:32:41.227Z,7.07
2023-01-15T15:35:28.060Z,5.63
2023-01-15T15:38:00.400Z,2.13
2023-01-15T15:40:36.687Z,1.13
2023-01-15T15:43:27.244Z,1.15
2023-01-15T15:46:11.468Z,1.92
2023-01-15T15:48:45.719Z,2.20
2023-01-15T15:51:33.856Z,1.33
2023-01-15T15:54:12.937Z,1.58
2023-01-15T15:56:52.439Z,2.10
2023-01-15T15:59:32.453Z,1.67
2023-01-15T16:02:10.896Z,1.63
2023-01-15T16:04:46.799Z,2.05
2023-01-15T16:07:17.767Z,1.27
2023-01-15T16:09:52.472Z,1.77
2023-01-15T16:12:26.469Z,1.83
2023-01-15T16:14:58.410Z,2.33
2023-01-15T16:17:29.724Z,1.52
2023-01-15T16:20:01.320Z,1.70
2023-01-15T16:22:31.699Z,1.67
2023-01-15T16:25:02.534Z,1.50
2023-01-15T16:27:37.391Z,1.60
2023-01-15T16:30:08.866Z,1.60
2023-01-15T16:32:39.862Z,2.80
2023-01-15T16:35:18.986Z,1.40
2023-01-15T16:37:53.712Z,2.08
2023-01-15T16:40:32.952Z,2.38
2023-01-15T16:43:10.800Z,2.72
2023-01-15T16:46:00.231Z,4.70
2023-01-15T16:48:36.910Z,2.00
2023-01-15T16:51:34.150Z,2.38
2023-01-15T16:54:05.608Z,2.47
2023-01-15T16:56:55.920Z,2.00
2023-01-15T17:00:05.043Z,1.70
2023-01-15T17:02:46.916Z,2.35
2023-01-15T17:05:27.397Z,1.85
2023-01-15T17:07:58.343Z,2.22
2023-01-15T17:10:31.700Z,1.83
2023-01-15T17:13:02.279Z,2.45
2023-01-15T17:15:43.963Z,3.38
2023-01-15T17:18:40.797Z,2.60
2023-01-15T17:21:18.346Z,1.23
2023-01-15T17:23:49.333Z,3.45
2023-01-15T17:26:22.060Z,3.28
2023-01-15T17:28:52.590Z,1.88
2023-01-15T17:31:29.625Z,1.30
2023-01-15T17:34:04.067Z,1.38
2023-01-15T17:36:34.733Z,1.35
2023-01-15T17:39:04.972Z,0.95
2023-01-15T17:41:35.230Z,1.00
2023-01-15T17:44:05.727Z,1.55
2023-01-15T17:46:36.099Z,1.35
2023-01-15T17:49:09.059Z,1.15
2023-01-15T17:51:39.400Z,1.40
2023-01-15T17:54:09.703Z,0.73
2023-01-15T17:56:52.544Z,0.70
2023-01-15T17:59:35.487Z,0.63
2023-01-15T18:02:20.184Z,0.75
2023-01-15T18:05:09.500Z,1.10
2023-01-15T18:07:42.809Z,1.13
2023-01-15T18:10:18.808Z,0.70
2023-01-15T18:12:49.211Z,0.73
2023-01-15T18:15:19.866Z,1.00
2023-01-15T18:17:50.193Z,1.00
2023-01-15T18:20:23.295Z,1.10
2023-01-15T18:22:53.677Z,1.40
2023-01-15T18:25:26.068Z,1.25
2023-01-15T18:27:56.571Z,1.48
2023-01-15T18:30:26.929Z,1.10
2023-01-15T18:32:57.295Z,1.25
2023-01-15T18:35:30.335Z,1.60
2023-01-15T18:38:00.771Z,1.58
2023-01-15T18:40:32.613Z,1.23
2023-01-15T18:43:15.447Z,1.52
2023-01-15T18:46:01.657Z,1.63
2023-01-15T18:48:31.987Z,1.30
2023-01-15T18:51:09.743Z,1.55
2023-01-15T18:53:40.085Z,1.55
2023-01-15T18:56:10.937Z,2.10
2023-01-15T18:58:44.541Z,1.40
2023-01-15T19:01:14.926Z,1.77
2023-01-15T19:03:45.293Z,2.15
2023-01-15T19:06:18.269Z,2.35
2023-01-15T19:08:48.734Z,2.50
2023-01-15T19:11:19.405Z,2.30
2023-01-15T19:14:10.107Z,2.83
2023-01-15T19:16:52.824Z,3.25
2023-01-15T19:19:23.203Z,3.78
2023-01-15T19:22:09.035Z,3.08
2023-01-15T19:24:39.680Z,2.65
2023-01-15T19:27:10.194Z,1.83
2023-01-15T19:29:40.458Z,2.30
2023-01-15T19:32:10.850Z,2.85
2023-01-15T19:34:41.605Z,2.38
2023-01-15T19:37:14.649Z,1.60
2023-01-15T19:39:44.970Z,2.17
2023-01-15T19:42:28.703Z,1.70
2023-01-15T19:45:11.422Z,1.95
2023-01-15T19:47:56.188Z,2.40
2023-01-15T19:50:30.870Z,1.60
2023-01-15T19:53:04.382Z,2.55
2023-01-15T19:55:36.117Z,1.88
2023-01-15T19:58:08.826Z,1.45
2023-01-15T20:00:41.359Z,1.60
2023-01-15T20:03:13.305Z,1.80
2023-01-15T20:05:45.031Z,1.77
2023-01-15T20:08:18.381Z,2.05
2023-01-15T20:10:50.602Z,2.05
2023-01-15T20:13:35.741Z,2.30
2023-01-15T20:16:11.230Z,1.85
2023-01-15T20:18:42.094Z,2.50
2023-01-15T20:21:14.691Z,1.70
2023-01-15T20:23:48.234Z,1.55
2023-01-15T20:26:18.655Z,1.92
2023-01-15T20:28:49.669Z,1.42
2023-01-15T20:31:21.999Z,1.25
2023-01-15T20:33:54.965Z,2.20
2023-01-15T20:36:25.785Z,2.25
2023-01-15T20:39:00.057Z,2.10
2023-01-15T20:41:43.214Z,1.67
2023-01-15T20:44:41.341Z,1.88
2023-01-15T20:47:32.237Z,1.52
2023-01-15T20:50:00.382Z,1.77
2023-01-15T20:52:31.152Z,1.52
2023-01-15T20:55:04.628Z,2.63
2023-01-15T20:57:37.346Z,2.40
2023-01-15T21:00:11.169Z,1.95
2023-01-15T21:02:41.925Z,1.90
2023-01-15T21:05:13.612Z,3.00
2023-01-15T21:07:44.577Z,1.77
2023-01-15T21:10:18.542Z,2.17
2023-01-15T21:12:49.525Z,1.67
2023-01-15T21:15:20.641Z,2.00
2023-01-15T21:17:52.696Z,1.48
2023-01-15T21:20:23.709Z,2.28
2023-01-15T21:22:54.491Z,1.92
2023-01-15T21:25:28.280Z,2.00
2023-01-15T21:27:59.126Z,1.67
2023-01-15T21:30:30.079Z,2.40
2023-01-15T21:33:00.833Z,2.35
2023-01-15T21:35:33.385Z,1.15
2023-01-15T21:38:04.128Z,2.20
2023-01-15T21:40:37.644Z,2.33
2023-01-15T21:43:21.610Z,1.90
2023-01-15T21:45:54.353Z,2.70
2023-01-15T21:48:25.077Z,2.20
2023-01-15T21:50:55.856Z,1.17
2023-01-15T21:53:26.747Z,1.60
2023-01-15T21:56:00.216Z,2.10
2023-01-15T21:58:30.957Z,3.75
2023-01-15T22:01:01.935Z,3.15
2023-01-15T22:03:33.090Z,3.40
2023-01-15T22:06:06.576Z,2.72
2023-01-15T22:08:37.690Z,1.92
2023-01-15T22:11:12.819Z,2.53
2023-01-15T22:13:43.569Z,2.08
2023-01-15T22:16:14.391Z,2.80
2023-01-15T22:18:45.589Z,2.58
2023-01-15T22:21:16.696Z,2.30
2023-01-15T22:23:49.175Z,2.47
2023-01-15T22:26:25.920Z,3.30
2023-01-15T22:28:57.148Z,2.05
2023-01-15T22:31:27.960Z,1.63
2023-01-15T22:34:01.372Z,2.75
2023-01-15T22:36:32.220Z,2.03
2023-01-15T22:39:02.967Z,2.03
2023-01-15T22:41:48.689Z,1.52
2023-01-15T22:44:19.593Z,1.70
2023-01-15T22:46:50.834Z,2.42
2023-01-15T22:49:21.690Z,1.40
2023-01-15T22:51:53.349Z,2.50
2023-01-15T22:54:24.422Z,1.10
2023-01-15T22:56:57.869Z,2.42
2023-01-15T22:59:28.707Z,1.65
2023-01-15T23:01:59.751Z,2.08
2023-01-15T23:04:30.989Z,1.73
2023-01-15T23:07:01.939Z,1.73
2023-01-15T23:09:32.722Z,1.30
2023-01-15T23:12:06.176Z,0.88
2023-01-15T23:14:36.891Z,2.78
2023-01-15T23:17:07.649Z,0.93
2023-01-15T23:19:38.481Z,0.60
2023-01-15T23:22:09.213Z,1.10
2023-01-15T23:24:40.182Z,1.08
2023-01-15T23:27:14.249Z,1.08
2023-01-15T23:29:44.945Z,1.35
2023-01-15T23:32:15.814Z,1.40
2023-01-15T23:34:46.587Z,1.42
2023-01-15T23:37:17.393Z,1.30
2023-01-15T23:39:48.174Z,1.08
2023-01-15T23:42:33.941Z,0.70
2023-01-15T23:45:16.920Z,1.13
2023-01-15T23:47:48.785Z,0.80
2023-01-15T23:50:19.915Z,0.85
2023-01-15T23:52:50.663Z,0.90
2023-01-15T23:55:21.652Z,0.50
2023-01-15T23:57:55.053Z,0.40
